Izumo Princess — SXMB — position and weather

sailwx.info

Track history (hours):
 
Tides and Currents Weather Stations Pressure Air Temp Water Temp Dewpoint Dewpoint Depression Visibility Wind Speed Wind Dir Waves Ship Positions

Izumo Princess

Last reported at 2017-Mar-25 10:33 UTC. Time now 2017-Mar-26 03:18 UTC.
Position N 40°01' E 026°10'.

Length 229 m; draft 8 m.

Type: Tanker. MMSI: 240611000.

Date/timePositionNaut miles runAvg speedWind from/ knotsBaromVisibWave heightAir tempDewpointWater temp
2017-Mar-25 10:33N 40°01' E 026°10'7 7.2
2017-Mar-25 09:33N 39°59' E 026°01'9 8.8
2017-Mar-25 08:33N 39°52' E 025°53'8 8.1
2017-Mar-25 07:32N 39°46' E 025°45'9 8.3
2017-Mar-25 06:27N 39°46' E 025°34'5 6.1
2017-Mar-25 05:33N 39°45' E 025°27'8 0.9
2017-Mar-24 20:27N 39°49' E 025°36'  
2017-Mar-22 02:10N 39°47' E 025°57'3 4.5
2017-Mar-22 01:30N 39°46' E 025°54'9 7.2
2017-Mar-22 00:11N 39°43' E 025°42'43 5.5
2017-Mar-21 16:17N 39°01' E 025°34'1011.6
2017-Mar-21 15:28N 38°60' E 025°22'2511.6
2017-Mar-21 13:18N 38°38' E 025°06'40010.3
2017-Mar-19 22:33N 36°02' E 017°22'2311.6
2017-Mar-19 20:33N 36°01' E 016°54'1111.4
2017-Mar-19 19:33N 36°00' E 016°40'1311.3
2017-Mar-19 18:25N 35°59' E 016°24'1011.3
2017-Mar-19 17:33N 35°58' E 016°12'1211.6
2017-Mar-19 16:33N 35°57' E 015°58'1211.8
2017-Mar-19 15:33N 35°55' E 015°43'1211.7
2017-Mar-19 14:33N 35°55' E 015°29'1211.8
2017-Mar-19 13:33N 35°52' E 015°14'1211.7
2017-Mar-19 12:33N 35°50' E 015°00'4 4.2
2017-Mar-19 11:31N 35°49' E 014°55'0 0.0
2017-Mar-19 10:31N 35°49' E 014°55'0 0.0
2017-Mar-19 09:31N 35°49' E 014°55'0 0.0
2017-Mar-19 05:22N 35°49' E 014°55'0 0.1
2017-Mar-19 04:31N 35°49' E 014°55'0 0.0
2017-Mar-19 03:31N 35°49' E 014°55'0 0.0
2017-Mar-19 01:04N 35°49' E 014°55'0 0.0
2017-Mar-19 00:19N 35°49' E 014°55'0 0.1
2017-Mar-18 23:22N 35°49' E 014°55'0 0.1
2017-Mar-18 22:31N 35°49' E 014°55'0 0.0
2017-Mar-18 21:31N 35°49' E 014°55'0 0.0
2017-Mar-18 18:04N 35°49' E 014°55'0 0.0
2017-Mar-18 17:22N 35°49' E 014°55'0 0.0
2017-Mar-18 16:31N 35°49' E 014°55'0 0.0
2017-Mar-18 14:22N 35°49' E 014°55'0 0.1
2017-Mar-18 13:28N 35°49' E 014°55'0 0.0
2017-Mar-18 12:31N 35°49' E 014°55'0 0.0
2017-Mar-18 11:25N 35°49' E 014°55'0 0.1
2017-Mar-18 10:31N 35°49' E 014°55'0 0.0
2017-Mar-18 06:31N 35°49' E 014°55'0 0.0
2017-Mar-18 05:31N 35°49' E 014°55'0 0.0
2017-Mar-18 04:31N 35°49' E 014°55'0 0.0
2017-Mar-18 03:07N 35°49' E 014°55'0 0.1
2017-Mar-18 02:31N 35°49' E 014°55'0 0.0
2017-Mar-18 01:31N 35°49' E 014°55'0 0.0
2017-Mar-18 00:31N 35°49' E 014°55'0 0.1
2017-Mar-17 23:07N 35°49' E 014°55'0 0.1
2017-Mar-17 21:25N 35°49' E 014°55'0 0.2
2017-Mar-17 20:31N 35°49' E 014°55'0 0.0
2017-Mar-17 19:31N 35°49' E 014°55'0 0.1
2017-Mar-17 18:31N 35°49' E 014°55'0 0.1
2017-Mar-17 17:31N 35°49' E 014°55'2 2.4
2017-Mar-17 16:31N 35°51' E 014°56'8 8.2
2017-Mar-17 15:30N 35°59' E 014°55'1010.8
2017-Mar-17 14:33N 36°03' E 014°43'1111.3
2017-Mar-17 13:33N 36°06' E 014°30'1211.7
2017-Mar-17 12:34N 36°12' E 014°17'1211.9
2017-Mar-17 11:33N 36°16' E 014°03'1111.4
2017-Mar-17 10:33N 36°23' E 013°52'38511.0
2017-Mar-15 23:34N 42°04' E 010°02'1212.3
2017-Mar-15 22:34N 42°16' E 009°57'1111.4
2017-Mar-15 21:33N 42°28' E 009°56'1212.0
2017-Mar-15 20:33N 42°40' E 009°55'1412.0
2017-Mar-15 19:24N 42°54' E 009°56'1012.0
2017-Mar-15 18:34N 43°03' E 009°60'1110.4
2017-Mar-15 17:33N 43°13' E 010°03'1 1.4
2017-Mar-15 16:34N 43°14' E 010°05'1 1.2
2017-Mar-15 15:33N 43°14' E 010°07'1 1.0
2017-Mar-15 14:34N 43°15' E 010°08'7 6.8
2017-Mar-15 13:34N 43°22' E 010°07'1010.2
2017-Mar-15 12:33N 43°31' E 010°13'4 3.9
2017-Mar-15 11:31N 43°34' E 010°18'0 0.0
2017-Mar-15 10:34N 43°34' E 010°18'  
Track history (hours):
 
Tides and Currents Weather Stations Pressure Air Temp Water Temp Dewpoint Dewpoint Depression Visibility Wind Speed Wind Dir Waves Ship Positions

Izumo Princess

Last reported at 2017-Mar-25 10:33 UTC. Time now 2017-Mar-26 03:18 UTC.
Position N 40°01' E 026°10'.

Length 229 m; draft 8 m.

Type: Tanker. MMSI: 240611000.

Date/timePositionNaut miles runAvg speedWind from/ knotsBaromVisibWave heightAir tempDewpointWater temp
2017-Mar-25 10:33N 40°01' E 026°10'7 7.2
2017-Mar-25 09:33N 39°59' E 026°01'9 8.8
2017-Mar-25 08:33N 39°52' E 025°53'8 8.1
2017-Mar-25 07:32N 39°46' E 025°45'9 8.3
2017-Mar-25 06:27N 39°46' E 025°34'5 6.1
2017-Mar-25 05:33N 39°45' E 025°27'8 0.9
2017-Mar-24 20:27N 39°49' E 025°36'  
2017-Mar-22 02:10N 39°47' E 025°57'3 4.5
2017-Mar-22 01:30N 39°46' E 025°54'9 7.2
2017-Mar-22 00:11N 39°43' E 025°42'43 5.5
2017-Mar-21 16:17N 39°01' E 025°34'1011.6
2017-Mar-21 15:28N 38°60' E 025°22'2511.6
2017-Mar-21 13:18N 38°38' E 025°06'40010.3
2017-Mar-19 22:33N 36°02' E 017°22'2311.6
2017-Mar-19 20:33N 36°01' E 016°54'1111.4
2017-Mar-19 19:33N 36°00' E 016°40'1311.3
2017-Mar-19 18:25N 35°59' E 016°24'1011.3
2017-Mar-19 17:33N 35°58' E 016°12'1211.6
2017-Mar-19 16:33N 35°57' E 015°58'1211.8
2017-Mar-19 15:33N 35°55' E 015°43'1211.7
2017-Mar-19 14:33N 35°55' E 015°29'1211.8
2017-Mar-19 13:33N 35°52' E 015°14'1211.7
2017-Mar-19 12:33N 35°50' E 015°00'4 4.2
2017-Mar-19 11:31N 35°49' E 014°55'0 0.0
2017-Mar-19 10:31N 35°49' E 014°55'0 0.0
2017-Mar-19 09:31N 35°49' E 014°55'0 0.0
2017-Mar-19 05:22N 35°49' E 014°55'0 0.1
2017-Mar-19 04:31N 35°49' E 014°55'0 0.0
2017-Mar-19 03:31N 35°49' E 014°55'0 0.0
2017-Mar-19 01:04N 35°49' E 014°55'0 0.0
2017-Mar-19 00:19N 35°49' E 014°55'0 0.1
2017-Mar-18 23:22N 35°49' E 014°55'0 0.1
2017-Mar-18 22:31N 35°49' E 014°55'0 0.0
2017-Mar-18 21:31N 35°49' E 014°55'0 0.0
2017-Mar-18 18:04N 35°49' E 014°55'0 0.0
2017-Mar-18 17:22N 35°49' E 014°55'0 0.0
2017-Mar-18 16:31N 35°49' E 014°55'0 0.0
2017-Mar-18 14:22N 35°49' E 014°55'0 0.1
2017-Mar-18 13:28N 35°49' E 014°55'0 0.0
2017-Mar-18 12:31N 35°49' E 014°55'0 0.0
2017-Mar-18 11:25N 35°49' E 014°55'0 0.1
2017-Mar-18 10:31N 35°49' E 014°55'0 0.0
2017-Mar-18 06:31N 35°49' E 014°55'0 0.0
2017-Mar-18 05:31N 35°49' E 014°55'0 0.0
2017-Mar-18 04:31N 35°49' E 014°55'0 0.0
2017-Mar-18 03:07N 35°49' E 014°55'0 0.1
2017-Mar-18 02:31N 35°49' E 014°55'0 0.0
2017-Mar-18 01:31N 35°49' E 014°55'0 0.0
2017-Mar-18 00:31N 35°49' E 014°55'0 0.1
2017-Mar-17 23:07N 35°49' E 014°55'0 0.1
2017-Mar-17 21:25N 35°49' E 014°55'0 0.2
2017-Mar-17 20:31N 35°49' E 014°55'0 0.0
2017-Mar-17 19:31N 35°49' E 014°55'0 0.1
2017-Mar-17 18:31N 35°49' E 014°55'0 0.1
2017-Mar-17 17:31N 35°49' E 014°55'2 2.4
2017-Mar-17 16:31N 35°51' E 014°56'8 8.2
2017-Mar-17 15:30N 35°59' E 014°55'1010.8
2017-Mar-17 14:33N 36°03' E 014°43'1111.3
2017-Mar-17 13:33N 36°06' E 014°30'1211.7
2017-Mar-17 12:34N 36°12' E 014°17'1211.9
2017-Mar-17 11:33N 36°16' E 014°03'1111.4
2017-Mar-17 10:33N 36°23' E 013°52'38511.0
2017-Mar-15 23:34N 42°04' E 010°02'1212.3
2017-Mar-15 22:34N 42°16' E 009°57'1111.4
2017-Mar-15 21:33N 42°28' E 009°56'1212.0
2017-Mar-15 20:33N 42°40' E 009°55'1412.0
2017-Mar-15 19:24N 42°54' E 009°56'1012.0
2017-Mar-15 18:34N 43°03' E 009°60'1110.4
2017-Mar-15 17:33N 43°13' E 010°03'1 1.4
2017-Mar-15 16:34N 43°14' E 010°05'1 1.2
2017-Mar-15 15:33N 43°14' E 010°07'1 1.0
2017-Mar-15 14:34N 43°15' E 010°08'7 6.8
2017-Mar-15 13:34N 43°22' E 010°07'1010.2
2017-Mar-15 12:33N 43°31' E 010°13'4 3.9
2017-Mar-15 11:31N 43°34' E 010°18'0 0.0
2017-Mar-15 10:34N 43°34' E 010°18'  

Dump ship's entire track history